Time;durP1;ratioP1;P1;durP2;ratioP2;P2;SDS_P1;SDS_P2;PMS_P1;PMS_P2;Temp;Humidity;BMP_temperature;BMP_pressure;BME280_temperature;BME280_humidity;BME280_pressure;Samples;Min_cycle;Max_cycle;Signal;HPM_P1;HPM_P2
2021/11/18 00:02:13;;;;;;;4.53;2.37;;;17.10;56.80;;;;;;10425219;28;20205;-65
2021/11/18 00:07:35;;;;;;;5.80;2.53;;;17.10;56.80;;;;;;10421881;28;20190;-64
2021/11/18 00:13:01;;;;;;;6.07;2.60;;;17.10;56.70;;;;;;10442138;28;20213;-64
2021/11/18 00:18:25;;;;;;;5.03;2.70;;;17.10;56.80;;;;;;10414861;28;20684;-64
2021/11/18 00:23:49;;;;;;;7.83;2.80;;;17.10;56.70;;;;;;10415487;28;20229;-64
2021/11/18 00:29:12;;;;;;;5.10;2.50;;;17.10;56.60;;;;;;10414915;28;20186;-65
2021/11/18 00:34:34;;;;;;;6.60;2.70;;;17.10;56.60;;;;;;10414360;28;20218;-64
2021/11/18 00:39:56;;;;;;;5.90;2.60;;;17.10;56.70;;;;;;10435293;28;20218;-64
2021/11/18 00:45:22;;;;;;;9.07;2.67;;;17.10;56.60;;;;;;10448814;28;20218;-64
2021/11/18 00:50:48;;;;;;;7.17;2.00;;;17.10;57.10;;;;;;10414524;28;20568;-65
2021/11/18 00:56:10;;;;;;;6.47;2.63;;;17.10;56.60;;;;;;10434521;28;20252;-64
2021/11/18 01:01:41;;;;;;;6.53;2.50;;;17.10;56.70;;;;;;10416985;28;20197;-63
2021/11/18 01:07:03;;;;;;;6.30;2.40;;;17.00;56.70;;;;;;10453620;28;20202;-64
2021/11/18 01:12:26;;;;;;;6.17;2.30;;;17.10;56.70;;;;;;10454698;28;20193;-65
2021/11/18 01:17:50;;;;;;;5.13;2.20;;;17.10;56.70;;;;;;10453336;28;20560;-65
2021/11/18 01:23:16;;;;;;;5.97;2.13;;;17.00;56.80;;;;;;10453630;28;20569;-64
2021/11/18 01:28:38;;;;;;;5.30;2.20;;;17.00;56.60;;;;;;10453503;28;20193;-65
2021/11/18 01:34:04;;;;;;;4.53;1.87;;;17.00;56.60;;;;;;10454455;28;20244;-65
2021/11/18 01:39:26;;;;;;;6.07;1.73;;;17.00;56.60;;;;;;10448136;28;20239;-63
2021/11/18 01:44:52;;;;;;;7.37;2.30;;;17.00;56.70;;;;;;10412508;28;20224;-64
2021/11/18 01:50:18;;;;;;;5.20;2.17;;;17.00;56.70;;;;;;10423213;28;20193;-66
2021/11/18 01:55:41;;;;;;;6.07;2.07;;;17.00;56.50;;;;;;10425181;28;20224;-65
2021/11/18 02:01:06;;;;;;;6.60;2.33;;;17.00;56.60;;;;;;10436545;28;20205;-64
2021/11/18 02:06:35;;;;;;;6.47;2.27;;;17.00;56.60;;;;;;10451824;28;20338;-63
2021/11/18 02:12:01;;;;;;;4.83;1.97;;;17.00;56.70;;;;;;10452469;28;20201;-65
2021/11/18 02:17:26;;;;;;;4.10;1.80;;;17.00;56.60;;;;;;10450627;28;20217;-65
2021/11/18 02:22:50;;;;;;;5.60;1.83;;;17.00;56.70;;;;;;10451050;28;20224;-64
2021/11/18 02:28:12;;;;;;;6.90;2.10;;;17.00;56.80;;;;;;10451807;28;20197;-64
2021/11/18 02:33:34;;;;;;;5.03;1.93;;;17.00;56.90;;;;;;10451493;28;20221;-64
2021/11/18 02:38:57;;;;;;;5.33;2.27;;;17.00;56.80;;;;;;10442772;28;20580;-63
2021/11/18 02:44:19;;;;;;;4.27;1.57;;;17.00;56.70;;;;;;10450134;28;20232;-64
2021/11/18 02:49:43;;;;;;;6.93;2.07;;;17.00;57.40;;;;;;10430723;28;20204;-64
2021/11/18 02:55:10;;;;;;;5.90;1.67;;;17.00;56.90;;;;;;10450451;28;20220;-64
2021/11/18 03:00:36;;;;;;;4.23;1.50;;;17.00;56.80;;;;;;10450070;28;20591;-64
2021/11/18 03:06:00;;;;;;;4.63;1.60;;;17.00;56.90;;;;;;10450646;28;20213;-63
2021/11/18 03:11:26;;;;;;;6.40;2.07;;;17.00;57.00;;;;;;10442739;28;20213;-64
2021/11/18 03:16:48;;;;;;;6.33;2.30;;;17.00;57.00;;;;;;10410816;28;20213;-64
2021/11/18 03:22:11;;;;;;;5.70;2.30;;;17.00;57.00;;;;;;10409624;28;20193;-64
2021/11/18 03:27:34;;;;;;;5.60;1.63;;;17.00;57.00;;;;;;10409204;28;20204;-63
2021/11/18 03:32:58;;;;;;;8.83;2.53;;;17.00;57.10;;;;;;10428479;28;20696;-64
2021/11/18 03:38:22;;;;;;;5.43;2.00;;;17.00;57.20;;;;;;10450375;28;20224;-62
2021/11/18 03:43:48;;;;;;;5.60;1.70;;;17.00;57.20;;;;;;10450545;28;20236;-63
2021/11/18 03:49:13;;;;;;;6.80;2.17;;;17.00;57.20;;;;;;10418219;28;20197;-64
2021/11/18 03:54:37;;;;;;;5.30;1.90;;;17.00;57.30;;;;;;10435935;28;20223;-64
2021/11/18 04:00:00;;;;;;;6.80;2.07;;;17.00;57.40;;;;;;10446367;28;20224;-63
2021/11/18 04:05:23;;;;;;;6.50;2.20;;;17.00;57.40;;;;;;10455868;28;20683;-64
2021/11/18 04:10:45;;;;;;;5.73;1.97;;;17.00;57.50;;;;;;10430043;28;20563;-64
2021/11/18 04:16:08;;;;;;;5.50;1.90;;;17.00;57.70;;;;;;10456179;28;20217;-64
2021/11/18 04:21:33;;;;;;;7.30;1.87;;;17.00;57.60;;;;;;10455774;28;20197;-64
2021/11/18 04:26:55;;;;;;;7.20;1.90;;;17.00;57.60;;;;;;10455431;28;20236;-64
2021/11/18 04:32:22;;;;;;;4.10;2.13;;;17.00;57.60;;;;;;10456324;28;20205;-61
2021/11/18 04:37:44;;;;;;;8.00;2.40;;;16.90;57.60;;;;;;10453167;28;20592;-64
2021/11/18 04:43:07;;;;;;;7.87;1.90;;;17.00;57.60;;;;;;10436214;22;20224;-62
2021/11/18 04:48:31;;;;;;;7.50;2.47;;;17.10;57.50;;;;;;10387244;28;20213;-65
2021/11/18 04:53:54;;;;;;;3.37;1.70;;;17.20;57.40;;;;;;10409212;28;20202;-62
2021/11/18 04:59:16;;;;;;;7.67;2.47;;;17.20;57.10;;;;;;10400438;28;20302;-65
2021/11/18 05:04:40;;;;;;;7.70;2.60;;;17.20;56.80;;;;;;10396545;28;20247;-65
2021/11/18 05:10:03;;;;;;;8.87;2.73;;;17.30;56.90;;;;;;10400521;28;20190;-64
2021/11/18 05:15:28;;;;;;;6.87;2.37;;;17.20;56.90;;;;;;10401568;28;20218;-65
2021/11/18 05:20:52;;;;;;;5.77;2.30;;;17.20;57.10;;;;;;10399505;28;20591;-62
2021/11/18 05:26:18;;;;;;;5.80;2.10;;;17.20;57.30;;;;;;10399515;28;20240;-66
2021/11/18 05:31:40;;;;;;;7.23;2.60;;;17.10;57.40;;;;;;10393769;28;20299;-66
2021/11/18 05:37:04;;;;;;;5.17;2.40;;;17.10;57.50;;;;;;10400538;28;20686;-66
2021/11/18 05:42:26;;;;;;;5.63;2.00;;;17.10;57.70;;;;;;10406723;28;20205;-63
2021/11/18 05:47:48;;;;;;;5.30;1.77;;;17.10;57.80;;;;;;10382259;28;20218;-63
2021/11/18 05:53:12;;;;;;;8.03;2.20;;;17.10;57.80;;;;;;10370011;28;20195;-64
2021/11/18 05:58:35;;;;;;;8.47;2.87;;;17.10;57.80;;;;;;10386629;28;20233;-64
2021/11/18 06:03:58;;;;;;;9.60;2.83;;;17.10;57.90;;;;;;10379593;28;20567;-65
2021/11/18 06:09:22;;;;;;;7.63;2.20;;;17.10;58.00;;;;;;10404129;28;20201;-65
2021/11/18 06:14:44;;;;;;;5.40;2.30;;;17.20;57.80;;;;;;10383612;28;20218;-64
2021/11/18 06:20:08;;;;;;;7.07;2.50;;;17.30;57.70;;;;;;10368653;28;20226;-65
2021/11/18 06:25:33;;;;;;;7.13;2.37;;;17.30;58.20;;;;;;10372763;28;20233;-65
2021/11/18 06:30:58;;;;;;;10.10;3.03;;;17.30;57.70;;;;;;10383971;28;20201;-65
2021/11/18 06:36:21;;;;;;;7.63;2.60;;;17.30;57.90;;;;;;10405628;28;20700;-66
2021/11/18 06:41:44;;;;;;;8.97;2.37;;;17.30;58.00;;;;;;10392356;28;20201;-65
2021/11/18 06:47:08;;;;;;;10.40;2.90;;;17.30;58.10;;;;;;10395122;28;20233;-65
2021/11/18 06:52:30;;;;;;;7.53;2.43;;;17.30;58.20;;;;;;10404492;28;20201;-66
2021/11/18 06:57:53;;;;;;;7.77;2.77;;;17.30;58.30;;;;;;10403667;28;20218;-65
2021/11/18 07:03:16;;;;;;;6.57;2.40;;;17.30;58.30;;;;;;10380317;28;20208;-65
2021/11/18 07:08:39;;;;;;;9.07;3.07;;;17.20;58.30;;;;;;10389675;28;20218;-65
2021/11/18 07:14:04;;;;;;;10.93;3.80;;;17.30;58.30;;;;;;10398342;28;20195;-65
2021/11/18 07:19:26;;;;;;;7.97;2.90;;;17.30;58.20;;;;;;10385576;28;20612;-65
2021/11/18 07:24:48;;;;;;;9.97;2.90;;;17.40;58.20;;;;;;10390127;28;20222;-65
2021/11/18 07:30:12;;;;;;;6.63;2.73;;;17.40;58.40;;;;;;10381842;28;20199;-64
2021/11/18 07:35:35;;;;;;;9.60;3.07;;;17.30;58.50;;;;;;10384789;28;20225;-65
2021/11/18 07:40:58;;;;;;;9.03;3.20;;;17.30;58.80;;;;;;10398063;28;20225;-64
2021/11/18 07:46:21;;;;;;;7.50;3.43;;;17.30;59.00;;;;;;10380006;28;20245;-64
2021/11/18 07:51:44;;;;;;;6.60;3.10;;;17.30;59.30;;;;;;10391514;28;20198;-65
2021/11/18 07:57:07;;;;;;;5.77;2.37;;;17.20;59.50;;;;;;10388446;28;20213;-65
2021/11/18 08:02:30;;;;;;;10.67;3.33;;;17.20;59.60;;;;;;10390650;28;20664;-65
2021/11/18 08:07:52;;;;;;;10.33;3.50;;;17.20;59.60;;;;;;10383182;28;20226;-65
2021/11/18 08:13:15;;;;;;;7.97;3.10;;;17.20;59.40;;;;;;10389566;28;20197;-65
2021/11/18 08:18:38;;;;;;;8.90;4.13;;;17.30;59.00;;;;;;10387387;28;20233;-65
2021/11/18 08:24:01;;;;;;;8.30;3.20;;;17.40;58.60;;;;;;10378494;28;20202;-65
2021/11/18 08:29:25;;;;;;;10.63;3.53;;;17.40;58.50;;;;;;10394136;28;20186;-65
2021/11/18 08:34:48;;;;;;;9.63;3.57;;;17.40;58.50;;;;;;10387433;28;20230;-66
2021/11/18 08:40:16;;;;;;;8.50;3.47;;;17.40;58.60;;;;;;10375305;28;20684;-65
2021/11/18 08:45:39;;;;;;;5.87;3.10;;;17.40;58.70;;;;;;10378190;28;20325;-65
2021/11/18 08:51:04;;;;;;;7.60;2.47;;;17.30;58.80;;;;;;10374515;28;20198;-65
2021/11/18 08:56:27;;;;;;;7.13;2.60;;;17.30;58.90;;;;;;10373164;28;20700;-65
2021/11/18 09:01:54;;;;;;;10.50;3.20;;;17.40;59.10;;;;;;10374704;28;20223;-65
2021/11/18 09:07:18;;;;;;;6.97;3.13;;;17.30;59.10;;;;;;10387453;28;20228;-64
2021/11/18 09:12:42;;;;;;;10.07;3.37;;;17.30;59.10;;;;;;10384125;28;20207;-65
2021/11/18 09:18:05;;;;;;;10.57;3.70;;;17.30;59.00;;;;;;10370097;28;20230;-65
2021/11/18 09:23:32;;;;;;;11.40;3.33;;;17.30;59.00;;;;;;10371372;28;20213;-65
2021/11/18 09:28:54;;;;;;;13.53;3.87;;;17.30;59.00;;;;;;10401089;28;20603;-66
2021/11/18 09:34:17;;;;;;;9.97;3.10;;;17.40;58.90;;;;;;10407720;28;20208;-66
2021/11/18 09:39:42;;;;;;;13.77;3.67;;;17.40;58.80;;;;;;10406120;28;20225;-66
2021/11/18 09:45:17;;;;;;;7.67;2.97;;;17.40;58.80;;;;;;10399315;28;20237;-66
2021/11/18 09:51:11;;;;;;;9.97;3.17;;;17.40;59.00;;;;;;10374370;28;20564;-64
2021/11/18 09:56:50;;;;;;;8.60;2.87;;;17.40;59.40;;;;;;10390794;28;20222;-64
2021/11/18 10:02:52;;;;;;;6.53;2.80;;;17.30;59.90;;;;;;10394182;28;20694;-65
2021/11/18 10:08:18;;;;;;;7.17;3.10;;;17.30;60.30;;;;;;10377938;28;20249;-64
2021/11/18 10:13:59;;;;;;;7.53;3.37;;;17.20;60.70;;;;;;10387285;28;20194;-66
2021/11/18 10:19:29;;;;;;;10.90;2.80;;;17.20;60.70;;;;;;10389871;28;20232;-65
2021/11/18 10:24:54;;;;;;;8.20;3.00;;;17.30;60.40;;;;;;10386071;28;20236;-65
2021/11/18 10:30:22;;;;;;;10.20;3.87;;;17.40;60.10;;;;;;10399016;28;20200;-66
2021/11/18 10:35:58;;;;;;;11.83;3.80;;;17.40;59.70;;;;;;10396570;28;20218;-66
2021/11/18 10:41:24;;;;;;;6.83;3.07;;;17.40;60.30;;;;;;10389788;28;20228;-64
2021/11/18 10:46:56;;;;;;;6.93;3.00;;;17.40;59.80;;;;;;10436231;22;20217;-64
2021/11/18 10:52:29;;;;;;;11.40;3.33;;;17.40;60.00;;;;;;10436511;28;20199;-65
2021/11/18 10:57:55;;;;;;;9.23;3.07;;;17.40;60.20;;;;;;10414794;28;20217;-64
2021/11/18 11:03:25;;;;;;;9.27;2.87;;;17.30;60.30;;;;;;10429558;28;20208;-63
2021/11/18 11:08:49;;;;;;;7.60;3.20;;;17.40;60.50;;;;;;10436219;28;20209;-64
2021/11/18 11:14:35;;;;;;;8.00;3.23;;;17.30;60.60;;;;;;10429239;28;20202;-64
2021/11/18 11:20:04;;;;;;;12.67;3.43;;;17.30;60.70;;;;;;10416193;28;20713;-64
2021/11/18 11:25:50;;;;;;;10.10;3.30;;;17.30;60.80;;;;;;10424526;28;20601;-64
2021/11/18 11:31:35;;;;;;;9.50;3.77;;;17.30;60.70;;;;;;10423708;28;20197;-63
2021/11/18 11:37:12;;;;;;;10.60;3.50;;;17.40;60.50;;;;;;10431553;28;20578;-64
2021/11/18 11:42:59;;;;;;;10.80;3.57;;;17.60;60.10;;;;;;10424496;28;20587;-64
2021/11/18 11:48:47;;;;;;;7.67;3.00;;;17.60;59.60;;;;;;10428739;28;20233;-65
2021/11/18 11:54:35;;;;;;;8.37;3.37;;;17.70;59.40;;;;;;10435428;28;20193;-64
2021/11/18 12:00:08;;;;;;;9.80;3.10;;;17.80;59.40;;;;;;10432262;28;20220;-64
2021/11/18 12:05:35;;;;;;;7.77;2.93;;;17.80;59.50;;;;;;10428047;28;20225;-64
2021/11/18 12:11:08;;;;;;;8.77;2.83;;;17.70;59.60;;;;;;10438765;28;20287;-63
2021/11/18 12:16:35;;;;;;;10.13;3.20;;;17.70;60.00;;;;;;10436596;28;20222;-64
2021/11/18 12:22:02;;;;;;;8.57;2.90;;;17.70;60.20;;;;;;10440103;28;20257;-63
2021/11/18 12:27:28;;;;;;;6.53;2.77;;;17.70;60.50;;;;;;10439022;28;20586;-62
2021/11/18 12:32:58;;;;;;;6.07;2.63;;;17.70;60.60;;;;;;10426768;28;20194;-63
2021/11/18 12:38:42;;;;;;;7.70;3.10;;;17.60;60.70;;;;;;10426894;28;20233;-63
2021/11/18 12:44:19;;;;;;;8.03;2.67;;;17.70;60.90;;;;;;10430724;28;20212;-64
2021/11/18 12:50:01;;;;;;;11.63;3.43;;;17.70;60.70;;;;;;10432306;28;20200;-64
2021/11/18 12:55:45;;;;;;;10.03;3.30;;;17.70;60.60;;;;;;10433917;28;20232;-63
2021/11/18 13:01:37;;;;;;;9.63;3.10;;;17.80;59.80;;;;;;10432205;28;20578;-62
2021/11/18 13:07:01;;;;;;;9.83;3.43;;;17.80;59.50;;;;;;10422075;28;20213;-65
2021/11/18 13:12:27;;;;;;;8.47;3.37;;;17.80;59.50;;;;;;10420250;28;20563;-63
2021/11/18 13:17:51;;;;;;;8.07;2.87;;;17.80;59.40;;;;;;10425463;28;20720;-63
2021/11/18 13:23:28;;;;;;;8.10;2.67;;;17.70;59.70;;;;;;10423646;28;20555;-63
2021/11/18 13:29:00;;;;;;;9.27;3.33;;;17.60;59.80;;;;;;10416926;28;20497;-63
2021/11/18 13:34:29;;;;;;;8.60;2.40;;;17.60;60.20;;;;;;10420154;28;20675;-62
2021/11/18 13:39:55;;;;;;;10.73;3.07;;;17.50;60.40;;;;;;10415731;28;20229;-63
2021/11/18 13:45:22;;;;;;;9.30;3.10;;;17.50;60.50;;;;;;10424321;28;20637;-63
2021/11/18 13:50:55;;;;;;;10.10;3.33;;;17.50;60.50;;;;;;10430936;28;20570;-62
2021/11/18 13:56:33;;;;;;;7.83;3.00;;;17.50;60.40;;;;;;10412529;28;20225;-63
2021/11/18 14:02:01;;;;;;;8.97;3.57;;;17.60;60.00;;;;;;10425621;28;20295;-63
2021/11/18 14:07:24;;;;;;;10.40;2.93;;;17.70;59.90;;;;;;10426036;28;20221;-63
2021/11/18 14:12:58;;;;;;;9.13;2.97;;;17.80;59.90;;;;;;10436369;28;20208;-64
2021/11/18 14:18:23;;;;;;;8.77;3.33;;;17.80;59.50;;;;;;10429798;28;20217;-64
2021/11/18 14:24:05;;;;;;;9.57;3.07;;;17.80;59.30;;;;;;10410526;28;20190;-65
2021/11/18 14:29:53;;;;;;;10.10;2.90;;;17.80;59.40;;;;;;10438550;28;20197;-65
2021/11/18 14:35:23;;;;;;;8.10;3.53;;;17.70;59.70;;;;;;10445614;28;20224;-65
2021/11/18 14:40:54;;;;;;;6.77;2.80;;;17.60;60.60;;;;;;10434134;28;20217;-65
2021/11/18 14:46:30;;;;;;;10.67;3.13;;;17.50;60.20;;;;;;10433909;28;20236;-64
2021/11/18 14:51:54;;;;;;;10.27;3.20;;;17.50;60.50;;;;;;10443728;28;20181;-65
2021/11/18 14:57:25;;;;;;;7.97;2.87;;;17.50;60.70;;;;;;10447166;28;20225;-64
2021/11/18 15:02:48;;;;;;;10.20;3.83;;;17.60;60.90;;;;;;10431159;28;20255;-65
2021/11/18 15:08:11;;;;;;;11.07;3.60;;;17.50;60.70;;;;;;10439353;28;20597;-65
2021/11/18 15:13:33;;;;;;;6.80;2.57;;;17.60;60.30;;;;;;10427799;28;20220;-64
2021/11/18 15:18:57;;;;;;;8.87;3.37;;;17.60;60.10;;;;;;10424099;28;20221;-64
2021/11/18 15:24:30;;;;;;;15.47;4.57;;;17.70;60.00;;;;;;10439663;28;20197;-64
2021/11/18 15:29:52;;;;;;;11.30;3.97;;;17.60;59.90;;;;;;10440598;28;20193;-64
2021/11/18 15:35:21;;;;;;;8.13;3.07;;;17.60;60.20;;;;;;10439468;28;20232;-64
2021/11/18 15:40:46;;;;;;;10.33;3.40;;;17.60;60.30;;;;;;10431671;28;20224;-64
2021/11/18 15:46:09;;;;;;;9.77;3.00;;;17.60;60.50;;;;;;10433094;28;20221;-63
2021/11/18 15:51:33;;;;;;;13.17;4.00;;;17.60;60.60;;;;;;10437309;28;20197;-64
2021/11/18 15:56:57;;;;;;;13.33;3.77;;;17.60;60.70;;;;;;10429417;28;20578;-64
2021/11/18 16:02:21;;;;;;;8.03;3.47;;;17.60;60.50;;;;;;10443800;28;20288;-64
2021/11/18 16:07:48;;;;;;;13.13;4.60;;;17.70;60.20;;;;;;10438687;28;20221;-65
2021/11/18 16:13:11;;;;;;;11.27;4.53;;;17.80;59.80;;;;;;10435365;28;20566;-64
2021/11/18 16:18:37;;;;;;;12.63;4.73;;;17.80;59.70;;;;;;10438409;28;20227;-64
2021/11/18 16:24:01;;;;;;;8.10;3.60;;;17.80;59.80;;;;;;10430065;28;20185;-64
2021/11/18 16:29:28;;;;;;;10.30;3.80;;;17.80;60.10;;;;;;10436641;28;20193;-64
2021/11/18 16:34:52;;;;;;;12.90;4.10;;;17.80;60.40;;;;;;10436552;28;20266;-64
2021/11/18 16:40:19;;;;;;;13.07;3.83;;;17.70;60.70;;;;;;10435373;28;20221;-64
2021/11/18 16:45:42;;;;;;;12.73;3.83;;;17.70;60.90;;;;;;10466574;22;20224;-64
2021/11/18 16:51:09;;;;;;;12.80;4.30;;;17.70;61.00;;;;;;10445440;28;20572;-64
2021/11/18 16:56:35;;;;;;;12.07;4.27;;;17.60;61.00;;;;;;10430361;28;20255;-64
2021/11/18 17:02:01;;;;;;;8.73;3.50;;;17.60;61.00;;;;;;10417686;28;20730;-65
2021/11/18 17:07:26;;;;;;;11.70;4.07;;;17.60;61.10;;;;;;10424534;28;20596;-64
2021/11/18 17:12:52;;;;;;;11.50;4.00;;;17.60;60.80;;;;;;10430881;28;20194;-64
2021/11/18 17:18:17;;;;;;;11.10;3.87;;;17.60;60.60;;;;;;10436392;28;20249;-64
2021/11/18 17:23:40;;;;;;;10.00;3.60;;;17.60;60.60;;;;;;10429299;28;20576;-64
2021/11/18 17:29:13;;;;;;;13.03;5.63;;;17.70;60.60;;;;;;10433931;28;20194;-64
2021/11/18 17:34:37;;;;;;;12.53;4.80;;;17.70;60.50;;;;;;10430315;28;20213;-64
2021/11/18 17:40:01;;;;;;;9.60;4.43;;;17.70;60.80;;;;;;10438023;28;20258;-65
2021/11/18 17:45:29;;;;;;;13.50;4.47;;;17.60;61.00;;;;;;10434758;28;20226;-64
2021/11/18 17:50:54;;;;;;;10.53;4.10;;;17.60;61.20;;;;;;10439064;28;20241;-64
2021/11/18 17:56:19;;;;;;;9.90;3.67;;;17.50;61.50;;;;;;10420599;28;20228;-65
2021/11/18 18:01:46;;;;;;;11.03;4.10;;;17.50;61.70;;;;;;10428199;28;20713;-64
2021/11/18 18:07:08;;;;;;;11.50;3.80;;;17.50;61.70;;;;;;10438679;28;20688;-65
2021/11/18 18:12:31;;;;;;;12.30;4.13;;;17.50;61.80;;;;;;10442197;28;20204;-66
2021/11/18 18:17:56;;;;;;;10.13;4.00;;;17.60;61.80;;;;;;10432131;28;20217;-66
2021/11/18 18:23:18;;;;;;;11.23;4.07;;;17.60;61.60;;;;;;10417314;28;20221;-66
2021/11/18 18:28:41;;;;;;;10.63;4.60;;;17.60;61.60;;;;;;10428827;28;20197;-66
2021/11/18 18:34:05;;;;;;;11.00;4.37;;;17.60;61.70;;;;;;10440309;28;20319;-64
2021/11/18 18:39:30;;;;;;;10.27;4.00;;;17.60;62.00;;;;;;10438497;28;20292;-64
2021/11/18 18:44:53;;;;;;;7.30;3.77;;;17.60;62.30;;;;;;10421446;28;20233;-64
2021/11/18 18:50:23;;;;;;;12.30;4.97;;;17.60;62.40;;;;;;10431295;28;20279;-63
2021/11/18 18:55:47;;;;;;;11.87;4.57;;;17.50;62.50;;;;;;10424721;28;20595;-64
2021/11/18 19:01:15;;;;;;;9.17;4.20;;;17.60;62.80;;;;;;10442546;28;20710;-64
2021/11/18 19:06:39;;;;;;;7.47;3.80;;;17.60;62.70;;;;;;10438928;28;20300;-63
2021/11/18 19:12:03;;;;;;;8.23;4.40;;;17.60;63.00;;;;;;10440926;28;20200;-67
2021/11/18 19:17:26;;;;;;;12.43;4.30;;;17.60;62.70;;;;;;10447871;28;20225;-63
2021/11/18 19:22:50;;;;;;;9.97;4.27;;;17.70;62.30;;;;;;10445232;28;20227;-63
2021/11/18 19:28:25;;;;;;;10.00;4.13;;;17.80;62.10;;;;;;10450160;28;20635;-64
2021/11/18 19:33:47;;;;;;;10.53;4.57;;;17.80;62.20;;;;;;10420966;28;20194;-64
2021/11/18 19:39:11;;;;;;;9.80;4.10;;;17.80;62.40;;;;;;10416622;28;20205;-65
2021/11/18 19:44:38;;;;;;;9.47;4.07;;;17.70;62.50;;;;;;10416061;28;20234;-64
2021/11/18 19:50:01;;;;;;;7.33;3.57;;;17.70;62.70;;;;;;10416018;28;20564;-65
2021/11/18 19:55:28;;;;;;;7.10;4.13;;;17.70;63.00;;;;;;10415815;28;20248;-64
2021/11/18 20:00:54;;;;;;;6.93;3.60;;;17.70;63.20;;;;;;10424037;28;20300;-64
2021/11/18 20:06:18;;;;;;;7.60;3.67;;;17.60;63.30;;;;;;10423991;28;20222;-64
2021/11/18 20:11:43;;;;;;;8.23;3.60;;;17.60;63.40;;;;;;10421310;28;20571;-64
2021/11/18 20:17:08;;;;;;;7.13;4.00;;;17.60;63.40;;;;;;10423733;28;20225;-64
2021/11/18 20:22:32;;;;;;;6.00;3.93;;;17.70;63.30;;;;;;10424526;28;20226;-63
2021/11/18 20:27:56;;;;;;;6.78;3.83;;;17.70;63.10;;;;;;10415522;28;20421;-65
2021/11/18 20:33:21;;;;;;;6.87;3.57;;;17.80;63.00;;;;;;10414924;28;20193;-64
2021/11/18 20:38:47;;;;;;;5.80;3.47;;;17.80;62.90;;;;;;10440895;28;20204;-66
2021/11/18 20:44:17;;;;;;;6.23;3.37;;;17.80;63.00;;;;;;10425715;28;20339;-65
2021/11/18 20:49:40;;;;;;;4.53;3.13;;;17.70;63.10;;;;;;10415319;28;20197;-65
2021/11/18 20:55:02;;;;;;;6.83;3.33;;;17.70;63.20;;;;;;10411054;28;20221;-65
2021/11/18 21:00:29;;;;;;;5.23;3.37;;;17.70;63.30;;;;;;10408747;28;20821;-65
2021/11/18 21:05:54;;;;;;;7.50;3.10;;;17.60;63.30;;;;;;10408065;28;20221;-65
2021/11/18 21:11:20;;;;;;;4.13;2.97;;;17.60;63.50;;;;;;10408445;28;20272;-65
2021/11/18 21:16:47;;;;;;;2.73;2.40;;;17.60;63.50;;;;;;10407935;28;20220;-65
2021/11/18 21:22:09;;;;;;;4.73;2.37;;;17.60;63.60;;;;;;10407287;28;20352;-65
2021/11/18 21:27:31;;;;;;;5.53;3.27;;;17.60;63.60;;;;;;10408618;28;20225;-65
2021/11/18 21:32:55;;;;;;;3.87;2.87;;;17.70;63.40;;;;;;10406443;28;20198;-65
2021/11/18 21:38:19;;;;;;;4.03;3.10;;;17.80;63.20;;;;;;10406637;28;20213;-65
2021/11/18 21:43:42;;;;;;;4.63;3.10;;;17.80;63.10;;;;;;10408017;28;20229;-64
2021/11/18 21:49:08;;;;;;;4.70;2.80;;;17.70;63.20;;;;;;10407580;28;20631;-64
2021/11/18 21:54:34;;;;;;;6.83;3.20;;;17.70;63.50;;;;;;10407764;28;20229;-65
2021/11/18 21:59:57;;;;;;;5.33;2.60;;;17.60;63.60;;;;;;10403993;28;20221;-64
2021/11/18 22:05:23;;;;;;;3.40;2.67;;;17.60;63.80;;;;;;10405920;28;20225;-64
2021/11/18 22:10:49;;;;;;;5.40;2.53;;;17.60;64.00;;;;;;10405645;28;20194;-64
2021/11/18 22:16:13;;;;;;;4.60;2.83;;;17.50;64.00;;;;;;10406662;28;20224;-65
2021/11/18 22:21:40;;;;;;;5.40;3.37;;;17.50;64.20;;;;;;10405762;28;20596;-65
2021/11/18 22:27:03;;;;;;;5.50;3.33;;;17.50;64.30;;;;;;10405709;28;20216;-64
2021/11/18 22:32:25;;;;;;;4.60;3.20;;;17.50;64.50;;;;;;10406375;28;20713;-64
2021/11/18 22:37:49;;;;;;;6.60;3.70;;;17.40;64.60;;;;;;10406304;28;20566;-65
2021/11/18 22:43:13;;;;;;;4.03;2.80;;;17.40;64.80;;;;;;10405737;28;20221;-64
2021/11/18 22:48:35;;;;;;;2.90;2.60;;;17.50;64.70;;;;;;10449048;22;20315;-64
2021/11/18 22:54:00;;;;;;;3.30;2.67;;;17.50;64.50;;;;;;10447725;28;20195;-65
2021/11/18 22:59:22;;;;;;;4.13;2.53;;;17.50;64.40;;;;;;10410061;28;20572;-64
2021/11/18 23:04:45;;;;;;;5.73;2.80;;;17.50;64.60;;;;;;10410383;28;20688;-65
2021/11/18 23:10:11;;;;;;;2.90;2.37;;;17.60;64.70;;;;;;10409720;28;20201;-65
2021/11/18 23:15:33;;;;;;;3.60;2.70;;;17.60;64.60;;;;;;10410744;28;20214;-64
2021/11/18 23:20:58;;;;;;;2.93;2.53;;;17.50;64.60;;;;;;10409576;28;20221;-65
2021/11/18 23:26:22;;;;;;;3.03;2.33;;;17.60;64.80;;;;;;10409779;28;20252;-65
2021/11/18 23:31:46;;;;;;;3.90;2.33;;;17.50;64.80;;;;;;10406659;28;20201;-65
2021/11/18 23:37:10;;;;;;;4.63;3.10;;;17.50;64.80;;;;;;10398011;28;20217;-64
2021/11/18 23:42:34;;;;;;;4.23;2.63;;;17.50;64.90;;;;;;10409648;28;20711;-65
2021/11/18 23:47:57;;;;;;;2.90;2.43;;;17.50;65.00;;;;;;10385977;28;20229;-65
2021/11/18 23:53:19;;;;;;;3.60;2.40;;;17.50;65.10;;;;;;10390740;28;20194;-65
2021/11/18 23:58:42;;;;;;;4.53;2.40;;;17.50;65.10;;;;;;10376267;28;20215;-64
